Flight Track Log - Related Links

Times and Time Zones

All times are in EDT time to prevent confusion due to time zone crossing. See the UAL4236 flight status page for this flight to view local times or setup timezone preferences in your user account.

Time Position Orientation Groundspeed Altitude Reporting Facility
EDT Latitude Longitude Course Direction KTS MPH feet Rate Location/Type
Thu 12:51:38 PM 31.7586 -106.4083 189° South 199 229 5,800  Level Albuquerque Center
Thu 12:52:40 PM 31.7053 -106.3347 130° Southeast 251 289 7,800 1,839 Climbing Albuquerque Center
Thu 12:53:42 PM 31.6814 -106.2506 108° East 273 314 9,600 1,645 Climbing Albuquerque Center
Thu 12:54:00 PM 31.7370 -105.8019 106° East  Level Estimated
Thu 12:54:44 PM 31.6603 -106.1569 105° East 296 341 11,200  Level Albuquerque Center
Thu 12:55:00 PM 31.7191 -105.6585 103° East  Level Estimated
Thu 12:55:46 PM 31.6386 -106.0553 104° East 313 360 13,200  Level Albuquerque Center
Thu 12:56:48 PM 31.6161 -105.9531 104° East 332 382 14,400 1,113 Climbing Albuquerque Center
Thu 12:57:50 PM 31.5914 -105.8375 104° East 364 419 15,500 1,161 Climbing Albuquerque Center
Thu 12:58:52 PM 31.5592 -105.6883 104° East 393 452 16,800 1,113 Climbing Albuquerque Center
Thu 12:59:54 PM 31.5328 -105.5567 103° East 412 474 17,800 1,016 Climbing Albuquerque Center
Thu 01:00:56 PM 31.5042 -105.4242 104° East 419 482 18,900 1,016 Climbing Albuquerque Center
Thu 01:01:58 PM 31.4750 -105.2867 104° East 430 495 19,900 1,016 Climbing Albuquerque Center
Thu 01:03:00 PM 31.4442 -105.1458 104° East 440 506 21,000 1,065 Climbing Albuquerque Center
Thu 01:04:02 PM 31.4136 -105.0033 104° East 447 514 22,100 1,016 Climbing Albuquerque Center
Thu 01:05:04 PM 31.3817 -104.8572 104° East 454 522 23,100 1,016 Climbing Albuquerque Center
Thu 01:06:06 PM 31.3494 -104.7103 104° East 459 528 24,200 1,161 Climbing Albuquerque Center
Thu 01:07:08 PM 31.3108 -104.5328 104° East 463 533 25,500 1,161 Climbing Albuquerque Center
Thu 01:08:10 PM 31.2775 -104.3853 105° East 466 536 26,600 1,016 Climbing Albuquerque Center
Thu 01:09:12 PM 31.2447 -104.2381 105° East 467 537 27,600 1,016 Climbing Albuquerque Center
Thu 01:10:14 PM 31.2122 -104.0914 104° East 466 536 28,700 1,016 Climbing Albuquerque Center
Thu 01:11:16 PM 31.1772 -103.9425 105° East 471 542 29,700 1,113 Climbing Albuquerque Center
Thu 01:12:18 PM 31.1364 -103.7692 105° East 472 543 31,000 1,056 Climbing Albuquerque Center
Thu 01:13:21 PM 31.1022 -103.6200 105° East 474 545 31,900 864 Climbing Albuquerque Center
Thu 01:14:23 PM 31.0667 -103.4686 105° East 481 554 32,800 871 Climbing Albuquerque Center
Thu 01:15:25 PM 31.0308 -103.3186 106° East 482 555 33,700 823 Climbing Albuquerque Center
Thu 01:16:27 PM 30.9944 -103.1658 105° East 487 560 34,500 629 Climbing Albuquerque Center
Thu 01:17:29 PM 30.9522 -102.9819 105° East 491 565 35,000 242 Climbing Albuquerque Center
Thu 01:18:31 PM 30.9097 -102.8242 107° East 506 582 35,000  Level Albuquerque Center
Thu 01:19:33 PM 30.8650 -102.6572 107° East 532 612 35,000  Level Albuquerque Center
Thu 01:20:35 PM 30.8186 -102.4881 108° East 547 629 35,000  Level Albuquerque Center
Thu 01:21:37 PM 30.7722 -102.3189 108° East 554 638 35,000 97 Level Albuquerque Center
Thu 01:22:39 PM 30.7169 -102.1186 108° East 552 635 35,200 774 Climbing Albuquerque Center
Thu 01:23:41 PM 30.6717 -101.9542 108° East 547 629 36,600 871 Climbing Albuquerque Center
Thu 01:24:43 PM 30.6283 -101.7972 108° East 531 611 37,000 226 Climbing Albuquerque Center
Thu 01:25:27 PM 30.5908 -101.6711 109° East 521 600 37,000 -57 Level Houston Center
Thu 01:26:29 PM 30.5497 -101.5183 107° East 532 612 36,900  Descending Houston Center
Thu 01:27:31 PM 30.5033 -101.3539 108° East 537 618 37,000 48 Climbing Houston Center
Thu 01:28:33 PM 30.4564 -101.1922 109° East 532 612 37,000  Level Houston Center
Thu 01:29:36 PM 30.4000 -100.9969 108° East 534 615 37,000  Level Houston Center
Thu 01:30:38 PM 30.3550 -100.8364 108° East 526 605 37,000  Level Houston Center
Thu 01:31:40 PM 30.3092 -100.6747 108° East 528 608 37,000 -97 Level Houston Center
Thu 01:32:42 PM 30.2628 -100.5142 108° East 526 605 36,800 -435 Descending Houston Center
Thu 01:33:44 PM 30.2169 -100.3553 108° East 520 598 36,100 -677 Descending Houston Center
Thu 01:34:46 PM 30.1675 -100.1892 109° East 532 612 35,400 -532 Descending Houston Center
Thu 01:35:48 PM 30.1186 -100.0189 108° East 548 631 35,000 -192 Descending Houston Center
Thu 01:36:51 PM 30.0686 -99.8569 110° East 534 615 35,000  Level Houston Center
Thu 01:37:53 PM 30.0106 -99.6611 109° East 538 619 35,000  Level Houston Center
Thu 01:38:55 PM 29.9617 -99.4969 109° East 541 623 35,000  Level Houston Center
Thu 01:39:57 PM 29.9131 -99.3367 109° East 532 612 35,000  Level Houston Center
Thu 01:40:59 PM 29.8650 -99.1758 109° East 532 612 35,000  Level Houston Center
Thu 01:42:01 PM 29.8056 -98.9869 110° East 533 613 35,000  Level Houston Center
Thu 01:43:03 PM 29.7711 -98.8231 104° East 534 615 35,000  Level Houston Center
Thu 01:44:06 PM 29.7589 -98.6378 94° East 540 621 35,000  Level Houston Center
Thu 01:45:08 PM 29.7478 -98.4733 94° East 545 627 35,000  Level Houston Center
Thu 01:46:10 PM 29.7353 -98.2881 94° East 547 629 35,000  Level Houston Center
Thu 01:47:12 PM 29.7217 -98.1011 95° East 545 627 35,000  Level Houston Center
Thu 01:48:14 PM 29.7081 -97.9300 95° East 539 620 35,000 -339 Level Houston Center
Thu 01:49:16 PM 29.6961 -97.7467 94° East 543 625 34,300 -960 Descending Houston Center
Thu 01:50:19 PM 29.6797 -97.5772 96° East 535 616 33,000 -1,536 Descending Houston Center
Thu 01:51:21 PM 29.6647 -97.4067 96° East 536 617 31,100 -1,935 Descending Houston Center
Thu 01:52:23 PM 29.6486 -97.2375 96° East 533 613 29,000 -2,323 Descending Houston Center
Thu 01:53:25 PM 29.6328 -97.0650 96° East 536 617 26,300 -2,371 Descending Houston Center
Thu 01:54:27 PM 29.6164 -96.8925 96° East 538 619 24,100 -2,613 Descending Houston Center
Thu 01:55:29 PM 29.6017 -96.7347 96° East 498 573 20,900 -2,855 Descending Houston Center
Thu 01:56:31 PM 29.5869 -96.5875 97° East 462 532 18,200 -2,544 Descending Houston Center
Thu 01:57:34 PM 29.5697 -96.4200 97° East 439 505 15,600 -2,448 Descending Houston Center
Thu 01:58:36 PM 29.5567 -96.2919 97° East 407 468 13,100 -1,742 Descending Houston Center
Thu 01:59:38 PM 29.5478 -96.1750 95° East 371 427 12,000 -690 Descending Houston Center
Thu 02:00:03 PM 29.5653 -96.1261 68° East 352 405 12,100  Climbing Houston Center
Thu 02:00:40 PM 29.5933 -96.0711 60° Northeast 366 421 12,000 -492 Descending Houston Center
Thu 02:01:04 PM 29.6192 -96.0214 59° Northeast 342 394 11,600 -1,258 Descending Houston Center
Thu 02:01:42 PM 29.6472 -95.9658 60° Northeast 339 390 10,700 -1,475 Descending Houston Center
Thu 02:02:05 PM 29.6639 -95.9322 60° Northeast 314 361 10,100 -1,452 Descending Houston Center
Thu 02:02:44 PM 29.6903 -95.8811 59° Northeast 312 359 9,200 -1,418 Descending Houston Center
Thu 02:03:00 PM 29.7033 -95.8556 60° Northeast 306 352 8,800 -1,429 Descending Houston Center
Thu 02:03:47 PM 29.7325 -95.7961 61° Northeast 305 351 7,700 -1,321 Descending Houston Center
Thu 02:04:49 PM 29.7744 -95.7122 60° Northeast 304 350 6,400 -706 Descending Houston Center
Thu 02:06:03 PM 29.8317 -95.6000 60° Northeast 302 348 6,100 -194 Descending Houston Center
Thu 02:06:53 PM 29.8572 -95.5478 61° Northeast 297 342 6,000 -107 Descending Houston Center
Thu 02:07:55 PM 29.8950 -95.4631 63° Northeast 296 341 5,900  Descending Houston Center
Thu 02:08:57 PM 29.8958 -95.3633 89° East 259 298 6,000 97 Climbing Houston Center
Thu 02:09:59 PM 29.8964 -95.2822 90° East 253 291 6,100  Climbing Houston Center
Thu 02:11:03 PM 29.8967 -95.1997 90° East 256 295 6,000 -384 Descending Houston Center
Thu 02:12:04 PM 29.8969 -95.1178 90° East 254 292 5,300 -878 Descending Houston Center
Thu 02:13:06 PM 29.8975 -95.0347 90° East 257 296 4,200 -629 Descending Houston Center
Thu 02:14:08 PM 29.9442 -94.9786 46° Northeast 250 288 4,000 -97 Descending Houston Center
Thu 02:15:10 PM 29.9897 -95.0289 316° Northwest 220 253 4,000  Level Houston Center
Thu 02:16:07 PM 29.9928 -95.0889 273° West 190 219 4,000 -504 Level Houston Center
Thu 02:17:09 PM 29.9928 -95.1564 270° West 205 236 3,000 -983 Descending Houston Center
Thu 02:18:03 PM 29.9942 -95.2167 272° West 199 229 2,100 -1,000 Descending Houston Center

Login

Don't have an account? Register now (free) for customized features, flight alerts, and more!